Time;durP1;ratioP1;P1;durP2;ratioP2;P2;SDS_P1;SDS_P2;PMS_P1;PMS_P2;Temp;Humidity;BMP_temperature;BMP_pressure;BME280_temperature;BME280_humidity;BME280_pressure;Samples;Min_cycle;Max_cycle;Signal;HPM_P1;HPM_P2
2023/07/24 00:01:53;;;;;;;43.17;7.20;;;27.20;55.70;;;;;;5027086;28;20205;-63
2023/07/24 00:04:19;;;;;;;53.83;8.07;;;27.10;55.60;;;;;;5042370;28;20212;-63
2023/07/24 00:06:46;;;;;;;80.43;10.83;;;27.10;55.60;;;;;;5018114;27;20205;-64
2023/07/24 00:09:13;;;;;;;28.60;5.70;;;27.10;55.60;;;;;;5036895;28;20197;-63
2023/07/24 00:11:40;;;;;;;25.03;5.10;;;27.10;55.70;;;;;;5026660;28;20216;-63
2023/07/24 00:14:08;;;;;;;29.50;5.53;;;27.10;55.70;;;;;;5026345;28;20225;-63
2023/07/24 00:16:35;;;;;;;28.03;5.47;;;27.10;55.70;;;;;;5026369;28;20237;-63
2023/07/24 00:19:02;;;;;;;22.47;5.33;;;27.10;55.70;;;;;;5026866;28;20198;-63
2023/07/24 00:21:30;;;;;;;27.30;5.70;;;27.10;55.70;;;;;;5024990;28;20224;-64
2023/07/24 00:23:57;;;;;;;26.90;5.87;;;27.10;55.70;;;;;;5025601;28;21847;-63
2023/07/24 00:26:23;;;;;;;38.23;6.60;;;27.10;56.30;;;;;;5025775;28;20665;-63
2023/07/24 00:28:50;;;;;;;27.27;5.70;;;27.10;55.70;;;;;;5025914;28;20210;-65
2023/07/24 00:31:19;;;;;;;16.03;4.63;;;27.00;55.70;;;;;;5026460;28;20208;-63
2023/07/24 00:33:45;;;;;;;34.67;6.13;;;27.10;56.30;;;;;;5026050;28;20650;-64
2023/07/24 00:36:12;;;;;;;23.20;5.43;;;27.00;55.70;;;;;;5027988;28;20201;-63
2023/07/24 00:38:40;;;;;;;30.27;5.90;;;27.00;55.70;;;;;;5032142;28;20205;-63
2023/07/24 00:41:07;;;;;;;29.13;5.83;;;27.00;56.30;;;;;;5026433;28;20208;-63
2023/07/24 00:43:33;;;;;;;37.63;6.73;;;27.00;55.70;;;;;;5025914;28;20201;-63
2023/07/24 00:46:00;;;;;;;23.20;5.00;;;27.00;55.70;;;;;;5026488;28;20209;-64
2023/07/24 00:48:29;;;;;;;23.63;5.17;;;27.00;55.70;;;;;;5045711;28;20561;-64
2023/07/24 00:50:57;;;;;;;26.03;5.27;;;27.00;55.70;;;;;;5041284;28;20665;-65
2023/07/24 00:53:24;;;;;;;31.20;6.13;;;27.00;55.70;;;;;;5035943;28;20203;-65
2023/07/24 00:55:50;;;;;;;20.27;5.30;;;27.00;55.70;;;;;;5047181;28;20224;-63
2023/07/24 00:58:19;;;;;;;27.13;5.87;;;27.00;55.80;;;;;;5038202;28;20211;-63
2023/07/24 01:00:46;;;;;;;24.53;5.43;;;27.00;56.30;;;;;;5029583;28;20669;-64
2023/07/24 01:03:13;;;;;;;22.33;5.60;;;27.00;55.70;;;;;;5015862;28;20216;-63
2023/07/24 01:05:41;;;;;;;28.33;5.83;;;27.00;55.80;;;;;;5026889;28;20300;-64
2023/07/24 01:08:08;;;;;;;29.57;5.80;;;26.90;55.70;;;;;;5027204;28;20242;-63
2023/07/24 01:10:35;;;;;;;39.47;6.67;;;27.00;55.80;;;;;;5030538;28;20208;-63
2023/07/24 01:13:08;;;;;;;29.67;5.30;;;27.00;55.80;;;;;;5025040;28;20736;-63
2023/07/24 01:15:39;;;;;;;30.63;5.97;;;27.00;55.80;;;;;;5024564;28;20235;-63
2023/07/24 01:18:10;;;;;;;21.83;4.93;;;27.00;55.80;;;;;;5042043;28;20206;-63
2023/07/24 01:20:40;;;;;;;42.53;6.83;;;27.00;55.80;;;;;;5026641;28;20311;-63
2023/07/24 01:23:30;;;;;;;21.40;5.30;;;27.00;55.80;;;;;;5035078;28;20204;-63
2023/07/24 01:25:59;;;;;;;29.83;6.17;;;26.90;55.70;;;;;;5046294;28;20204;-64
2023/07/24 01:28:27;;;;;;;30.30;5.73;;;26.90;55.70;;;;;;5046294;28;20712;-63
2023/07/24 01:30:54;;;;;;;24.97;5.40;;;26.90;55.70;;;;;;5045383;28;20188;-65
2023/07/24 01:33:22;;;;;;;30.70;5.80;;;26.90;55.70;;;;;;5024400;28;20205;-63
2023/07/24 01:35:51;;;;;;;28.43;5.57;;;26.90;55.70;;;;;;5025702;28;20216;-64
2023/07/24 01:38:19;;;;;;;31.80;6.20;;;26.90;55.80;;;;;;5026134;28;20185;-64
2023/07/24 01:40:46;;;;;;;31.43;6.13;;;26.90;55.70;;;;;;5026541;28;20284;-64
2023/07/24 01:43:15;;;;;;;23.47;5.33;;;26.90;55.70;;;;;;5026701;28;20212;-64
2023/07/24 01:45:42;;;;;;;22.13;5.30;;;26.90;55.70;;;;;;5026453;28;20716;-68
2023/07/24 01:48:09;;;;;;;29.73;5.77;;;26.90;55.80;;;;;;5042969;28;20212;-63
2023/07/24 01:50:36;;;;;;;33.30;6.40;;;26.90;55.80;;;;;;5039249;28;20204;-64
2023/07/24 01:53:03;;;;;;;31.97;6.00;;;26.90;55.80;;;;;;5023819;28;20196;-64
2023/07/24 01:55:30;;;;;;;28.87;5.87;;;26.90;55.90;;;;;;5034436;28;20693;-63
2023/07/24 01:57:57;;;;;;;34.43;6.37;;;26.90;55.90;;;;;;5026055;28;20562;-63
2023/07/24 02:00:25;;;;;;;23.83;5.37;;;26.90;55.80;;;;;;5026170;28;20200;-63
2023/07/24 02:02:52;;;;;;;28.07;5.50;;;26.90;55.80;;;;;;5025146;28;20553;-63
2023/07/24 02:05:19;;;;;;;28.57;5.67;;;26.90;55.80;;;;;;5025986;28;20208;-64
2023/07/24 02:07:46;;;;;;;37.10;6.57;;;26.90;55.90;;;;;;5026286;28;20297;-63
2023/07/24 02:10:12;;;;;;;36.90;6.60;;;26.90;55.90;;;;;;5026046;28;20407;-64
2023/07/24 02:12:39;;;;;;;19.80;5.10;;;26.80;55.80;;;;;;5026281;28;20204;-65
2023/07/24 02:15:07;;;;;;;32.93;6.37;;;26.80;55.80;;;;;;5025541;28;20231;-64
2023/07/24 02:17:35;;;;;;;31.53;6.23;;;26.90;55.90;;;;;;5032549;28;20211;-64
2023/07/24 02:20:02;;;;;;;22.13;5.17;;;26.90;55.90;;;;;;5023735;28;20225;-64
2023/07/24 02:22:29;;;;;;;47.90;7.70;;;26.80;56.40;;;;;;5025581;28;20196;-63
2023/07/24 02:24:58;;;;;;;25.97;5.53;;;26.90;55.90;;;;;;5025531;28;20209;-64
2023/07/24 02:27:27;;;;;;;28.40;5.87;;;26.90;55.90;;;;;;5025223;28;20609;-63
2023/07/24 02:29:54;;;;;;;25.70;5.57;;;26.80;55.80;;;;;;5025336;28;20205;-64
2023/07/24 02:32:22;;;;;;;33.43;6.27;;;26.80;55.80;;;;;;5025439;28;20653;-64
2023/07/24 02:34:50;;;;;;;19.43;5.00;;;26.80;55.90;;;;;;5023860;28;20308;-63
2023/07/24 02:37:17;;;;;;;29.73;6.00;;;26.80;55.90;;;;;;5025093;28;20196;-64
2023/07/24 02:39:44;;;;;;;45.83;7.43;;;26.80;55.90;;;;;;5024067;28;20197;-64
2023/07/24 02:42:11;;;;;;;25.03;5.57;;;26.80;55.90;;;;;;5025167;28;20288;-63
2023/07/24 02:44:39;;;;;;;36.37;6.43;;;26.80;55.90;;;;;;5024923;28;20690;-63
2023/07/24 02:47:05;;;;;;;35.10;6.83;;;26.80;55.90;;;;;;5029879;28;20193;-63
2023/07/24 02:49:33;;;;;;;30.97;5.90;;;26.80;55.90;;;;;;5041089;28;20220;-64
2023/07/24 02:52:01;;;;;;;27.73;5.60;;;26.80;55.90;;;;;;5044697;28;20210;-63
2023/07/24 02:54:28;;;;;;;46.33;7.33;;;26.80;55.90;;;;;;5038187;28;20265;-65
2023/07/24 02:56:55;;;;;;;27.00;5.77;;;26.80;55.90;;;;;;5024108;28;20211;-64
2023/07/24 02:59:22;;;;;;;31.53;6.07;;;26.80;55.90;;;;;;5024703;28;20840;-65
2023/07/24 03:01:49;;;;;;;25.67;5.20;;;26.70;55.90;;;;;;5024658;28;20201;-63
2023/07/24 03:04:16;;;;;;;27.93;5.93;;;26.80;55.90;;;;;;5024780;28;20301;-67
2023/07/24 03:06:43;;;;;;;40.83;7.27;;;26.80;55.90;;;;;;5023832;28;20197;-63
2023/07/24 03:09:11;;;;;;;29.27;5.83;;;26.80;55.90;;;;;;5023060;28;20197;-63
2023/07/24 03:11:38;;;;;;;24.43;5.23;;;26.80;55.90;;;;;;5023061;28;20200;-64
2023/07/24 03:14:05;;;;;;;40.50;6.93;;;26.80;55.90;;;;;;5024457;28;20691;-65
2023/07/24 03:16:32;;;;;;;29.10;5.77;;;26.80;55.90;;;;;;5036055;28;20631;-63
2023/07/24 03:18:58;;;;;;;28.60;5.77;;;26.80;55.90;;;;;;5024460;28;20204;-63
2023/07/24 03:21:25;;;;;;;31.23;6.00;;;26.80;55.90;;;;;;5022326;28;20203;-63
2023/07/24 03:23:52;;;;;;;20.83;5.17;;;26.80;56.00;;;;;;5023675;28;20232;-64
2023/07/24 03:26:20;;;;;;;22.67;5.27;;;26.70;55.90;;;;;;5024791;28;20208;-65
2023/07/24 03:28:47;;;;;;;19.67;5.10;;;26.70;55.90;;;;;;5024747;28;20204;-63
2023/07/24 03:31:14;;;;;;;24.90;5.33;;;26.70;55.90;;;;;;5023853;28;20197;-63
2023/07/24 03:33:41;;;;;;;27.17;5.70;;;26.70;55.90;;;;;;5026804;28;20672;-64
2023/07/24 03:36:08;;;;;;;23.13;5.40;;;26.70;55.90;;;;;;5026537;28;20759;-69
2023/07/24 03:38:35;;;;;;;32.13;6.30;;;26.70;55.90;;;;;;5039558;28;20200;-68
2023/07/24 03:41:02;;;;;;;61.67;8.63;;;26.70;55.90;;;;;;5042878;28;20211;-68
2023/07/24 03:43:30;;;;;;;30.23;6.13;;;26.70;55.90;;;;;;5041532;28;20203;-69
2023/07/24 03:45:57;;;;;;;24.53;5.67;;;26.70;55.90;;;;;;5047595;28;20208;-67
2023/07/24 03:48:23;;;;;;;28.53;5.80;;;26.70;55.90;;;;;;5042203;28;20212;-67
2023/07/24 03:50:51;;;;;;;33.20;6.27;;;26.60;55.90;;;;;;5026210;28;20210;-65
2023/07/24 03:53:17;;;;;;;29.57;6.03;;;26.70;55.90;;;;;;5026465;28;20329;-64
2023/07/24 03:55:45;;;;;;;58.57;8.60;;;26.70;55.90;;;;;;5024738;28;20224;-64
2023/07/24 03:58:12;;;;;;;43.10;7.03;;;26.70;55.90;;;;;;5025522;28;20200;-63
2023/07/24 04:00:40;;;;;;;28.87;5.80;;;26.70;55.90;;;;;;5047904;27;20196;-64
2023/07/24 04:03:07;;;;;;;18.60;4.67;;;26.70;55.90;;;;;;5048128;28;20192;-63
2023/07/24 04:05:35;;;;;;;27.63;5.57;;;26.70;55.90;;;;;;5028203;28;20204;-64
2023/07/24 04:08:02;;;;;;;22.80;5.00;;;26.60;55.90;;;;;;5026115;28;20215;-65
2023/07/24 04:10:30;;;;;;;27.63;5.80;;;26.70;56.00;;;;;;5026867;28;20284;-63
2023/07/24 04:12:58;;;;;;;32.33;6.57;;;26.70;56.00;;;;;;5027209;28;20204;-64
2023/07/24 04:15:24;;;;;;;28.40;5.73;;;26.70;56.00;;;;;;5027461;28;20240;-65
2023/07/24 04:17:53;;;;;;;21.80;4.87;;;26.70;56.00;;;;;;5027348;28;20200;-63
2023/07/24 04:20:20;;;;;;;23.13;5.20;;;26.70;56.00;;;;;;5027153;28;20232;-63
2023/07/24 04:22:46;;;;;;;29.40;5.60;;;26.70;56.00;;;;;;5027137;28;20205;-64
2023/07/24 04:25:13;;;;;;;23.67;5.20;;;26.60;56.60;;;;;;5033260;28;20203;-68
2023/07/24 04:27:41;;;;;;;37.97;6.60;;;26.70;56.00;;;;;;5044676;28;20658;-64
2023/07/24 04:30:08;;;;;;;28.63;5.60;;;26.70;56.00;;;;;;5026769;28;20283;-64
2023/07/24 04:32:35;;;;;;;27.23;5.77;;;26.70;56.00;;;;;;5026750;28;20189;-64
2023/07/24 04:35:04;;;;;;;21.53;5.17;;;26.70;56.00;;;;;;5026713;28;20594;-64
2023/07/24 04:37:31;;;;;;;33.57;6.00;;;26.70;56.00;;;;;;5027096;28;20207;-64
2023/07/24 04:39:58;;;;;;;42.30;6.90;;;26.60;55.90;;;;;;5043700;28;20203;-64
2023/07/24 04:42:25;;;;;;;26.07;5.63;;;26.60;56.00;;;;;;5025941;28;20209;-64
2023/07/24 04:44:52;;;;;;;28.67;5.80;;;26.70;56.00;;;;;;5026667;28;20634;-63
2023/07/24 04:47:19;;;;;;;52.37;7.97;;;26.60;56.00;;;;;;5032098;28;20208;-62
2023/07/24 04:49:46;;;;;;;33.40;6.40;;;26.60;56.00;;;;;;5025122;27;20575;-62
2023/07/24 04:52:14;;;;;;;30.70;5.90;;;26.60;56.00;;;;;;5026921;28;20205;-62
2023/07/24 04:54:41;;;;;;;34.43;6.10;;;26.60;56.00;;;;;;5027330;28;20610;-69
2023/07/24 04:57:08;;;;;;;25.10;5.43;;;26.70;56.10;;;;;;5027228;28;20233;-69
2023/07/24 04:59:35;;;;;;;27.10;5.43;;;26.60;56.00;;;;;;5037739;27;20661;-69
2023/07/24 05:02:01;;;;;;;42.17;7.00;;;26.60;56.00;;;;;;5027294;28;20197;-69
2023/07/24 05:04:28;;;;;;;34.77;6.90;;;26.70;56.10;;;;;;5036458;28;20201;-68
2023/07/24 05:06:55;;;;;;;17.40;4.80;;;26.60;56.00;;;;;;5030439;28;20208;-69
2023/07/24 05:09:23;;;;;;;38.50;6.67;;;26.70;56.10;;;;;;5032181;28;20209;-69
2023/07/24 05:11:50;;;;;;;31.10;6.03;;;26.60;56.00;;;;;;5036843;27;20204;-67
2023/07/24 05:14:17;;;;;;;24.03;5.27;;;26.60;56.10;;;;;;5046181;27;20211;-68
2023/07/24 05:16:44;;;;;;;26.53;5.73;;;26.70;56.10;;;;;;5046028;28;20267;-69
2023/07/24 05:19:11;;;;;;;30.40;5.97;;;26.60;56.00;;;;;;5046262;28;20227;-69
2023/07/24 05:21:38;;;;;;;30.90;6.10;;;26.70;56.10;;;;;;5046617;28;20553;-70
2023/07/24 05:24:05;;;;;;;30.30;6.03;;;26.70;56.10;;;;;;5046034;28;20212;-69
2023/07/24 05:26:33;;;;;;;30.00;6.20;;;26.60;56.00;;;;;;5025806;28;20209;-70
2023/07/24 05:29:00;;;;;;;30.37;6.17;;;26.60;56.00;;;;;;5026291;28;20205;-69
2023/07/24 05:31:27;;;;;;;27.73;5.93;;;26.60;56.00;;;;;;5024199;28;20197;-69
2023/07/24 05:33:54;;;;;;;50.10;7.93;;;26.60;56.10;;;;;;5036811;28;20201;-69
2023/07/24 05:36:20;;;;;;;34.43;6.57;;;26.60;56.00;;;;;;5044826;28;20220;-69
2023/07/24 05:38:47;;;;;;;35.00;6.43;;;26.60;56.10;;;;;;5021826;28;20211;-68
2023/07/24 05:41:14;;;;;;;28.40;5.57;;;26.70;56.20;;;;;;5025918;28;20314;-67
2023/07/24 05:43:42;;;;;;;32.40;6.23;;;26.60;56.10;;;;;;5025888;28;20261;-68
2023/07/24 05:46:09;;;;;;;34.97;6.37;;;26.60;56.10;;;;;;5025493;28;20205;-65
2023/07/24 05:48:36;;;;;;;28.53;6.13;;;26.60;56.10;;;;;;5025323;28;20201;-63
2023/07/24 05:51:03;;;;;;;25.07;5.97;;;26.70;56.20;;;;;;5025510;28;20694;-64
2023/07/24 05:53:30;;;;;;;36.27;6.37;;;26.70;56.20;;;;;;5024978;28;20204;-62
2023/07/24 05:55:59;;;;;;;30.93;5.90;;;26.60;56.10;;;;;;5024520;28;20581;-62
2023/07/24 05:58:26;;;;;;;33.27;6.10;;;26.60;56.10;;;;;;5023407;28;20689;-64
2023/07/24 06:00:55;;;;;;;29.23;5.63;;;26.60;56.10;;;;;;5024399;28;20201;-63
2023/07/24 06:03:22;;;;;;;34.57;6.13;;;26.60;56.10;;;;;;5035655;28;20209;-62
2023/07/24 06:05:52;;;;;;;29.47;5.93;;;26.60;56.10;;;;;;5044381;28;20215;-64
2023/07/24 06:08:19;;;;;;;26.50;5.60;;;26.60;56.20;;;;;;5025253;28;20200;-62
2023/07/24 06:10:48;;;;;;;28.03;5.80;;;26.70;56.20;;;;;;5025457;28;20703;-63
2023/07/24 06:13:15;;;;;;;23.57;5.77;;;26.60;56.20;;;;;;5025916;28;20227;-63
2023/07/24 06:15:42;;;;;;;22.03;5.23;;;26.70;56.20;;;;;;5025454;28;20239;-62
2023/07/24 06:18:11;;;;;;;35.93;6.37;;;26.70;56.30;;;;;;5025943;27;20221;-63
2023/07/24 06:20:37;;;;;;;44.93;7.23;;;26.70;56.20;;;;;;5024359;28;20205;-63
2023/07/24 06:23:04;;;;;;;27.83;5.80;;;26.70;56.20;;;;;;5028973;27;20576;-64
2023/07/24 06:25:31;;;;;;;28.83;5.90;;;26.70;56.30;;;;;;5039351;28;20204;-63
2023/07/24 06:27:59;;;;;;;50.93;7.70;;;26.70;56.20;;;;;;5042803;28;20220;-65
2023/07/24 06:30:26;;;;;;;28.17;5.73;;;26.70;56.20;;;;;;5029122;28;20204;-68
2023/07/24 06:32:53;;;;;;;25.07;5.77;;;26.70;56.20;;;;;;5031614;28;20204;-62
2023/07/24 06:35:21;;;;;;;29.67;6.17;;;26.70;56.20;;;;;;5037160;28;20213;-64
2023/07/24 06:37:48;;;;;;;16.03;4.60;;;26.70;56.20;;;;;;5025301;28;20232;-64
2023/07/24 06:40:14;;;;;;;32.53;6.37;;;26.70;56.20;;;;;;5025057;28;20565;-63
2023/07/24 06:42:41;;;;;;;31.73;5.80;;;26.70;56.30;;;;;;5024944;28;20193;-63
2023/07/24 06:45:09;;;;;;;28.73;5.63;;;26.70;56.20;;;;;;5025158;28;20288;-63
2023/07/24 06:47:36;;;;;;;28.53;5.97;;;26.70;56.20;;;;;;5025377;28;20208;-62
2023/07/24 06:50:04;;;;;;;20.50;5.40;;;26.70;56.20;;;;;;5025368;28;20223;-62
2023/07/24 06:52:32;;;;;;;31.17;6.13;;;26.70;56.20;;;;;;5019421;28;20204;-63
2023/07/24 06:54:59;;;;;;;35.10;6.33;;;26.70;56.20;;;;;;5024920;28;20197;-63
2023/07/24 06:57:26;;;;;;;30.00;5.80;;;26.70;56.20;;;;;;5024425;28;20232;-63
2023/07/24 06:59:53;;;;;;;33.70;6.40;;;26.70;56.20;;;;;;5024526;28;20189;-63
2023/07/24 07:02:20;;;;;;;22.20;5.37;;;26.80;56.30;;;;;;5026720;28;20196;-63
2023/07/24 07:04:47;;;;;;;30.57;6.53;;;26.80;56.30;;;;;;5028987;28;22302;-64
2023/07/24 07:07:14;;;;;;;26.70;5.53;;;26.80;56.30;;;;;;5025485;28;20197;-63
2023/07/24 07:09:42;;;;;;;27.80;6.00;;;26.80;56.30;;;;;;5016830;28;20208;-65
2023/07/24 07:12:09;;;;;;;29.30;6.27;;;26.80;56.30;;;;;;5051819;27;20207;-63
2023/07/24 07:14:36;;;;;;;23.10;5.67;;;26.80;56.30;;;;;;5048267;27;20636;-63
2023/07/24 07:17:03;;;;;;;27.40;5.53;;;26.80;56.30;;;;;;5028061;28;20239;-63
2023/07/24 07:19:30;;;;;;;29.23;5.87;;;26.80;56.20;;;;;;5026535;28;20205;-63
2023/07/24 07:21:56;;;;;;;32.80;6.20;;;26.80;56.30;;;;;;5029301;28;20208;-64
2023/07/24 07:24:23;;;;;;;17.80;4.97;;;26.80;56.20;;;;;;5028325;28;20205;-63
2023/07/24 07:26:51;;;;;;;49.97;8.07;;;26.80;56.30;;;;;;5027821;28;20196;-64
2023/07/24 07:29:18;;;;;;;27.07;5.80;;;26.80;56.30;;;;;;5027190;28;20201;-63
2023/07/24 07:31:45;;;;;;;44.90;7.43;;;26.90;56.40;;;;;;5024244;28;20205;-62
2023/07/24 07:34:12;;;;;;;32.20;6.53;;;26.80;56.30;;;;;;5025508;28;20217;-63
2023/07/24 07:36:39;;;;;;;28.27;5.87;;;26.90;56.40;;;;;;5024787;28;20248;-63
2023/07/24 07:39:05;;;;;;;26.33;5.70;;;26.90;56.40;;;;;;5028146;28;20205;-63
2023/07/24 07:41:32;;;;;;;42.60;7.27;;;26.90;56.40;;;;;;5025708;28;20672;-64
2023/07/24 07:44:01;;;;;;;38.47;6.93;;;26.90;56.40;;;;;;5027364;28;20201;-64
2023/07/24 07:46:27;;;;;;;31.67;6.60;;;26.90;56.40;;;;;;5027226;28;20204;-63
2023/07/24 07:48:54;;;;;;;25.47;5.73;;;26.90;56.40;;;;;;5027654;28;20542;-62
2023/07/24 07:51:21;;;;;;;38.97;6.83;;;27.00;56.40;;;;;;5024289;28;20213;-60
2023/07/24 07:53:48;;;;;;;27.23;6.13;;;27.00;56.50;;;;;;5027511;28;20200;-61
2023/07/24 07:56:15;;;;;;;27.57;6.10;;;27.00;56.40;;;;;;5027265;27;20237;-61
2023/07/24 07:58:42;;;;;;;24.77;6.10;;;27.00;56.40;;;;;;5026401;28;20201;-61
2023/07/24 08:01:10;;;;;;;31.00;6.57;;;27.00;56.40;;;;;;5027906;28;20193;-61
2023/07/24 08:03:37;;;;;;;34.60;6.40;;;27.10;56.50;;;;;;5031781;27;20201;-60
2023/07/24 08:06:04;;;;;;;28.20;5.93;;;27.00;56.50;;;;;;5028255;28;20212;-62
2023/07/24 08:08:31;;;;;;;28.40;6.47;;;27.10;56.50;;;;;;5021863;28;20211;-63
2023/07/24 08:10:58;;;;;;;30.53;5.90;;;27.10;56.50;;;;;;5027203;28;20203;-62
2023/07/24 08:13:25;;;;;;;29.63;6.43;;;27.20;56.50;;;;;;5027135;28;20207;-62
2023/07/24 08:15:51;;;;;;;24.00;5.30;;;27.20;56.60;;;;;;5028106;28;20209;-61
2023/07/24 08:18:20;;;;;;;31.87;6.17;;;27.20;56.50;;;;;;5026477;28;20198;-63
2023/07/24 08:20:47;;;;;;;38.60;6.83;;;27.20;56.50;;;;;;5026211;28;20201;-63
2023/07/24 08:23:13;;;;;;;23.10;5.20;;;27.20;56.50;;;;;;5026322;28;20205;-61
2023/07/24 08:25:40;;;;;;;36.43;6.80;;;27.20;56.50;;;;;;5026297;28;20205;-61
2023/07/24 08:28:07;;;;;;;64.13;9.03;;;27.30;57.20;;;;;;5023969;28;20217;-63
2023/07/24 08:30:35;;;;;;;34.23;6.50;;;27.30;56.60;;;;;;5027143;27;20201;-63
2023/07/24 08:33:01;;;;;;;22.03;5.53;;;27.30;56.50;;;;;;5026792;28;20201;-60
2023/07/24 08:35:30;;;;;;;30.40;6.17;;;27.30;56.50;;;;;;5021192;28;20197;-61
2023/07/24 08:37:57;;;;;;;26.27;5.73;;;27.30;56.50;;;;;;5025230;28;20225;-61
2023/07/24 08:40:24;;;;;;;27.27;6.07;;;27.30;56.50;;;;;;5027006;28;20204;-62
2023/07/24 08:42:51;;;;;;;26.47;5.70;;;27.30;56.50;;;;;;5025134;28;20205;-61
2023/07/24 08:45:19;;;;;;;33.47;6.37;;;27.30;56.40;;;;;;5025644;28;20212;-61
2023/07/24 08:47:46;;;;;;;25.17;5.40;;;27.40;56.50;;;;;;5025604;28;20209;-64
2023/07/24 08:50:15;;;;;;;41.73;7.03;;;27.40;56.40;;;;;;5025957;28;20217;-62
2023/07/24 08:52:44;;;;;;;26.83;5.90;;;27.40;56.40;;;;;;5027022;28;20256;-62
2023/07/24 08:55:11;;;;;;;24.73;5.43;;;27.40;56.40;;;;;;5026037;28;20205;-61
2023/07/24 08:57:38;;;;;;;34.10;6.27;;;27.50;56.40;;;;;;5026420;28;20232;-63
2023/07/24 09:00:07;;;;;;;29.73;5.93;;;27.50;56.40;;;;;;5023577;28;20204;-63
2023/07/24 09:02:34;;;;;;;28.13;5.97;;;27.50;56.40;;;;;;5028190;27;20672;-63
2023/07/24 09:05:01;;;;;;;22.93;5.27;;;27.50;56.30;;;;;;5025570;28;20239;-63
2023/07/24 09:07:28;;;;;;;35.27;6.63;;;27.60;56.40;;;;;;5025125;28;20201;-63
2023/07/24 09:09:56;;;;;;;22.20;5.43;;;27.60;56.40;;;;;;5024262;28;20315;-63
2023/07/24 09:12:24;;;;;;;48.07;7.80;;;27.60;56.30;;;;;;5023424;28;20664;-66
2023/07/24 09:15:02;;;;;;;34.77;7.07;;;27.60;56.40;;;;;;5071970;27;20234;-63
2023/07/24 09:17:29;;;;;;;25.03;6.10;;;27.60;56.30;;;;;;5020541;28;20323;-63
2023/07/24 09:19:58;;;;;;;33.20;6.43;;;27.70;56.30;;;;;;5039600;28;20197;-64
2023/07/24 09:22:26;;;;;;;35.07;6.43;;;27.70;56.20;;;;;;5025525;28;20653;-63
2023/07/24 09:24:54;;;;;;;21.27;5.40;;;27.70;56.20;;;;;;5025314;27;20201;-64
2023/07/24 09:27:26;;;;;;;27.47;6.10;;;27.70;56.10;;;;;;5024696;28;20205;-64
2023/07/24 09:29:53;;;;;;;20.43;5.50;;;27.70;56.10;;;;;;5033629;28;20277;-63
2023/07/24 09:32:21;;;;;;;22.47;5.63;;;27.70;56.10;;;;;;5025953;28;20204;-65
2023/07/24 09:34:50;;;;;;;21.60;5.50;;;27.70;56.00;;;;;;5024920;28;20220;-63
2023/07/24 09:37:27;;;;;;;41.63;7.37;;;27.70;56.00;;;;;;5024142;28;20221;-63
2023/07/24 09:39:54;;;;;;;40.33;7.07;;;27.80;56.00;;;;;;5024499;28;20201;-63
2023/07/24 09:42:30;;;;;;;32.27;6.50;;;27.80;55.90;;;;;;5025486;28;20209;-63
2023/07/24 09:44:57;;;;;;;33.70;6.47;;;27.80;55.80;;;;;;5024274;28;20216;-63
2023/07/24 09:47:24;;;;;;;64.40;9.43;;;27.80;55.80;;;;;;5028983;28;20215;-64
2023/07/24 09:49:52;;;;;;;30.10;6.33;;;27.80;55.80;;;;;;5034916;28;20212;-65
2023/07/24 09:52:20;;;;;;;26.63;6.23;;;27.80;55.80;;;;;;5023356;28;20258;-65
2023/07/24 09:54:56;;;;;;;22.73;5.70;;;27.80;55.80;;;;;;5025632;28;20579;-64
2023/07/24 09:57:24;;;;;;;42.10;7.37;;;27.80;55.70;;;;;;5023763;28;20232;-63
2023/07/24 09:59:54;;;;;;;31.17;6.40;;;27.80;55.70;;;;;;5023894;28;20251;-63
2023/07/24 10:02:22;;;;;;;25.07;6.07;;;27.80;55.70;;;;;;5024923;28;20265;-63
2023/07/24 10:04:49;;;;;;;32.47;5.77;;;27.80;55.80;;;;;;5022432;28;20783;-63
2023/07/24 10:07:16;;;;;;;21.23;5.23;;;27.80;55.80;;;;;;5024276;28;20205;-63
2023/07/24 10:09:44;;;;;;;27.50;6.17;;;27.80;55.80;;;;;;5023708;28;20229;-63
2023/07/24 10:12:11;;;;;;;24.00;5.40;;;27.80;55.80;;;;;;5024992;28;20208;-63
2023/07/24 10:14:39;;;;;;;50.53;8.20;;;27.80;55.80;;;;;;5022842;28;20197;-63
2023/07/24 10:17:07;;;;;;;18.23;5.20;;;27.80;55.80;;;;;;5024985;28;20224;-63
2023/07/24 10:19:40;;;;;;;24.43;5.70;;;27.80;55.70;;;;;;5021976;28;20221;-65
2023/07/24 10:22:07;;;;;;;23.27;5.30;;;27.80;55.60;;;;;;5023176;28;20287;-64
2023/07/24 10:24:34;;;;;;;28.43;6.20;;;27.80;55.60;;;;;;5020539;28;20212;-63
2023/07/24 10:27:03;;;;;;;21.43;5.67;;;27.80;55.60;;;;;;5027505;27;20198;-65
2023/07/24 10:29:35;;;;;;;37.00;7.23;;;27.80;55.50;;;;;;5025416;28;20189;-63
2023/07/24 10:32:02;;;;;;;44.13;7.70;;;27.90;55.50;;;;;;5025899;27;20637;-60
2023/07/24 10:34:39;;;;;;;24.40;5.67;;;27.80;55.40;;;;;;5021311;28;20197;-65
2023/07/24 10:37:08;;;;;;;20.80;5.73;;;27.90;55.50;;;;;;5025083;28;20256;-61
2023/07/24 10:39:40;;;;;;;28.50;6.10;;;27.80;55.40;;;;;;5023476;28;20201;-62
2023/07/24 10:42:08;;;;;;;33.13;6.33;;;27.80;55.40;;;;;;5019771;28;20193;-65
2023/07/24 10:44:35;;;;;;;28.73;6.30;;;27.80;55.40;;;;;;5012785;28;20212;-64
2023/07/24 10:47:02;;;;;;;28.37;6.40;;;27.80;55.40;;;;;;5020428;28;20214;-63
2023/07/24 10:49:30;;;;;;;44.47;7.43;;;27.80;55.40;;;;;;5022772;28;20209;-63
2023/07/24 10:51:59;;;;;;;27.03;6.13;;;27.80;55.50;;;;;;5024675;28;20295;-66
2023/07/24 10:54:26;;;;;;;38.70;7.50;;;27.70;55.40;;;;;;5020009;28;20210;-63
2023/07/24 10:56:59;;;;;;;29.00;6.67;;;27.70;55.40;;;;;;5027275;28;20200;-65
2023/07/24 10:59:37;;;;;;;23.47;5.80;;;27.70;55.30;;;;;;5039896;28;20244;-66
2023/07/24 11:02:05;;;;;;;23.17;5.87;;;27.70;55.30;;;;;;5025047;28;20219;-65
2023/07/24 11:04:33;;;;;;;45.33;7.83;;;27.70;55.40;;;;;;5030172;28;20215;-68
2023/07/24 11:07:01;;;;;;;32.93;6.60;;;27.70;55.40;;;;;;5044619;28;20704;-64
2023/07/24 11:09:36;;;;;;;22.07;5.63;;;27.70;55.40;;;;;;5044576;28;20668;-66
2023/07/24 11:12:11;;;;;;;34.43;6.83;;;27.70;55.30;;;;;;5044895;28;20679;-64
2023/07/24 11:14:54;;;;;;;22.20;5.70;;;27.70;55.30;;;;;;5044845;28;20207;-66
2023/07/24 11:17:21;;;;;;;28.30;6.33;;;27.70;55.30;;;;;;5032175;28;20233;-64
2023/07/24 11:19:48;;;;;;;25.00;5.83;;;27.70;55.40;;;;;;5033063;28;20214;-71
2023/07/24 11:22:16;;;;;;;25.60;5.97;;;27.70;55.40;;;;;;5043203;28;20204;-72
2023/07/24 11:24:44;;;;;;;30.60;6.17;;;27.60;55.30;;;;;;5042071;28;20205;-72
2023/07/24 11:27:14;;;;;;;80.27;10.77;;;27.60;55.30;;;;;;5038660;28;20235;-70
2023/07/24 11:29:41;;;;;;;45.30;7.43;;;27.60;55.30;;;;;;5006816;28;20899;-64
2023/07/24 11:32:08;;;;;;;31.47;6.13;;;27.60;55.30;;;;;;5020620;28;20209;-68
2023/07/24 11:34:36;;;;;;;28.63;6.17;;;27.60;55.30;;;;;;5036268;28;20203;-68
2023/07/24 11:37:03;;;;;;;28.37;6.10;;;27.60;55.40;;;;;;5031712;28;20197;-68
2023/07/24 11:39:32;;;;;;;30.70;6.00;;;27.60;55.40;;;;;;5024169;28;20720;-67
2023/07/24 11:42:01;;;;;;;33.47;6.37;;;27.60;55.50;;;;;;5023000;28;20206;-68
2023/07/24 11:44:29;;;;;;;22.13;5.60;;;27.60;55.50;;;;;;5024943;28;20197;-69
2023/07/24 11:47:02;;;;;;;44.40;7.53;;;27.60;55.50;;;;;;5022432;28;20197;-65
2023/07/24 11:49:31;;;;;;;22.33;5.47;;;27.60;55.60;;;;;;5009028;28;20229;-66
2023/07/24 11:52:02;;;;;;;26.40;6.07;;;27.60;55.60;;;;;;5021055;28;20287;-64
2023/07/24 11:54:28;;;;;;;17.43;4.93;;;27.60;55.60;;;;;;5026535;28;20205;-64
2023/07/24 11:56:57;;;;;;;23.47;5.67;;;27.70;55.70;;;;;;5026568;28;20212;-65
2023/07/24 11:59:25;;;;;;;24.80;5.53;;;27.70;55.60;;;;;;5027052;28;20239;-64
2023/07/24 12:01:52;;;;;;;24.80;5.43;;;27.70;55.60;;;;;;5028051;28;20211;-64
2023/07/24 12:04:20;;;;;;;31.83;6.27;;;27.70;55.50;;;;;;5025944;28;20216;-69
2023/07/24 12:06:47;;;;;;;23.27;5.80;;;27.80;55.60;;;;;;5026923;28;20201;-66
2023/07/24 12:09:14;;;;;;;29.43;5.97;;;27.70;55.50;;;;;;5027408;28;20207;-65
2023/07/24 12:11:42;;;;;;;37.73;6.67;;;27.80;55.50;;;;;;5027892;28;20203;-72
2023/07/24 12:14:10;;;;;;;25.23;5.50;;;27.80;55.50;;;;;;5030827;28;20200;-71
2023/07/24 12:16:39;;;;;;;40.63;7.53;;;27.80;55.40;;;;;;5046734;27;20232;-68
2023/07/24 12:19:06;;;;;;;56.73;8.90;;;27.80;55.40;;;;;;5027767;27;20236;-71
2023/07/24 12:21:32;;;;;;;28.77;6.30;;;27.80;55.40;;;;;;5049154;27;20276;-70
2023/07/24 12:23:59;;;;;;;29.43;6.30;;;27.80;55.40;;;;;;5033043;28;20648;-71
2023/07/24 12:26:27;;;;;;;21.90;5.50;;;27.80;55.50;;;;;;5027327;28;20204;-69
2023/07/24 12:28:54;;;;;;;32.20;6.23;;;27.80;55.50;;;;;;5026247;28;20299;-67
2023/07/24 12:31:23;;;;;;;45.03;7.30;;;27.80;55.60;;;;;;5026857;28;20201;-68
2023/07/24 12:33:49;;;;;;;27.30;5.67;;;27.80;55.70;;;;;;5022987;28;20205;-69
2023/07/24 12:36:16;;;;;;;31.60;6.47;;;27.90;55.90;;;;;;5046056;28;20204;-67
2023/07/24 12:38:44;;;;;;;28.73;6.17;;;27.90;55.80;;;;;;5029611;28;20228;-68